createdAt,value
2022-12-08T00:00:37.525Z,37.50
2022-12-08T00:03:42.522Z,37.46
2022-12-08T00:07:03.004Z,37.37
2022-12-08T00:10:25.199Z,37.45
2022-12-08T00:13:30.124Z,37.38
2022-12-08T00:16:33.218Z,37.33
2022-12-08T00:19:40.191Z,37.37
2022-12-08T00:22:43.186Z,37.11
2022-12-08T00:25:46.182Z,37.26
2022-12-08T00:28:49.818Z,37.29
2022-12-08T00:31:52.973Z,37.33
2022-12-08T00:34:57.361Z,37.35
2022-12-08T00:38:00.958Z,37.29
2022-12-08T00:41:04.839Z,37.20
2022-12-08T00:44:08.279Z,37.29
2022-12-08T00:47:11.608Z,37.36
2022-12-08T00:50:16.018Z,36.83
2022-12-08T00:53:21.350Z,37.31
2022-12-08T00:56:32.819Z,37.32
2022-12-08T00:59:41.196Z,37.08
2022-12-08T01:02:54.182Z,36.99
2022-12-08T01:06:08.724Z,36.91
2022-12-08T01:09:14.063Z,37.00
2022-12-08T01:12:17.214Z,36.72
2022-12-08T01:15:20.244Z,36.86
2022-12-08T01:18:23.380Z,37.10
2022-12-08T01:21:28.469Z,36.79
2022-12-08T01:24:31.505Z,36.85
2022-12-08T01:27:34.548Z,36.82
2022-12-08T01:30:39.973Z,36.64
2022-12-08T01:33:43.504Z,36.52
2022-12-08T01:36:48.108Z,36.80
2022-12-08T01:39:51.080Z,36.31
2022-12-08T01:42:54.179Z,36.77
2022-12-08T01:45:57.341Z,36.19
2022-12-08T01:49:06.894Z,36.25
2022-12-08T01:52:17.566Z,36.49
2022-12-08T01:55:24.071Z,36.29
2022-12-08T01:58:31.329Z,36.54
2022-12-08T02:01:34.768Z,36.59
2022-12-08T02:04:37.937Z,36.25
2022-12-08T02:07:42.600Z,36.41
2022-12-08T02:10:45.703Z,36.40
2022-12-08T02:13:51.575Z,36.33
2022-12-08T02:17:04.459Z,36.23
2022-12-08T02:20:39.213Z,36.44
2022-12-08T02:23:52.951Z,36.11
2022-12-08T02:27:19.598Z,36.61
2022-12-08T02:30:26.580Z,36.07
2022-12-08T02:33:56.547Z,36.27
2022-12-08T02:37:09.360Z,36.50
2022-12-08T02:40:20.681Z,35.97
2022-12-08T02:43:33.490Z,36.30
2022-12-08T02:46:44.586Z,36.12
2022-12-08T02:49:49.173Z,35.90
2022-12-08T02:52:52.332Z,36.02
2022-12-08T02:56:09.694Z,36.07
2022-12-08T02:59:26.113Z,36.18
2022-12-08T03:02:51.099Z,36.19
2022-12-08T03:06:08.347Z,35.96
2022-12-08T03:09:18.826Z,36.07
2022-12-08T03:12:27.247Z,36.22
2022-12-08T03:15:32.614Z,35.80
2022-12-08T03:18:44.421Z,35.64
2022-12-08T03:21:52.529Z,35.73
2022-12-08T03:24:57.083Z,35.81
2022-12-08T03:28:01.592Z,35.61
2022-12-08T03:31:09.161Z,35.97
2022-12-08T03:34:15.271Z,35.55
2022-12-08T03:37:19.996Z,35.75
2022-12-08T03:40:23.016Z,35.62
2022-12-08T03:43:26.004Z,35.71
2022-12-08T03:49:33.195Z,35.61
2022-12-08T03:52:37.618Z,35.58
2022-12-08T03:55:40.636Z,35.70
2022-12-08T03:58:44.724Z,35.78
2022-12-08T04:01:47.887Z,35.84
2022-12-08T04:04:51.023Z,35.84
2022-12-08T04:07:58.498Z,35.50
2022-12-08T04:11:01.617Z,35.54
2022-12-08T04:14:04.612Z,35.81
2022-12-08T04:17:07.628Z,35.64
2022-12-08T04:20:11.493Z,35.54
2022-12-08T04:23:16.020Z,35.68
2022-12-08T04:26:19.062Z,35.31
2022-12-08T04:29:22.686Z,35.81
2022-12-08T04:32:25.696Z,35.73
2022-12-08T04:35:29.352Z,36.08
2022-12-08T04:38:33.851Z,35.57
2022-12-08T04:41:36.903Z,35.94
2022-12-08T04:44:39.954Z,35.77
2022-12-08T04:47:43.022Z,35.89
2022-12-08T04:50:47.068Z,36.24
2022-12-08T04:53:51.544Z,35.80
2022-12-08T04:56:54.602Z,35.99
2022-12-08T04:59:57.674Z,36.23
2022-12-08T05:03:00.874Z,35.83
2022-12-08T05:06:04.527Z,36.53
2022-12-08T05:09:09.067Z,37.17
2022-12-08T05:12:12.256Z,37.89
2022-12-08T05:15:15.448Z,37.17
2022-12-08T05:18:18.414Z,37.78
2022-12-08T05:21:21.383Z,37.70
2022-12-08T05:24:25.944Z,37.46
2022-12-08T05:27:29.050Z,37.21
2022-12-08T05:30:32.165Z,37.22
2022-12-08T05:33:35.386Z,37.35
2022-12-08T05:36:38.390Z,37.29
2022-12-08T05:39:42.758Z,37.22
2022-12-08T05:42:45.798Z,37.37
2022-12-08T05:45:48.931Z,37.01
2022-12-08T05:48:51.950Z,36.96
2022-12-08T05:51:55.000Z,37.28
2022-12-08T05:54:59.459Z,36.75
2022-12-08T05:58:07.648Z,36.76
2022-12-08T06:01:20.496Z,36.71
2022-12-08T06:04:23.548Z,37.01
2022-12-08T06:07:26.631Z,37.01
2022-12-08T06:10:31.264Z,36.96
2022-12-08T06:13:34.297Z,36.79
2022-12-08T06:16:37.353Z,36.73
2022-12-08T06:19:40.433Z,36.56
2022-12-08T06:22:43.517Z,36.90
2022-12-08T06:25:48.022Z,36.80
2022-12-08T06:28:51.838Z,37.01
2022-12-08T06:31:55.005Z,36.84
2022-12-08T06:34:58.061Z,36.63
2022-12-08T06:38:01.035Z,36.58
2022-12-08T06:41:05.918Z,36.81
2022-12-08T06:44:09.286Z,36.71
2022-12-08T06:47:12.383Z,36.49
2022-12-08T06:50:15.690Z,36.53
2022-12-08T06:53:19.470Z,34.18
2022-12-08T06:56:27.986Z,32.38
2022-12-08T06:59:31.062Z,31.72
2022-12-08T07:02:34.501Z,31.48
2022-12-08T07:05:38.230Z,31.31
2022-12-08T07:08:41.254Z,30.86
2022-12-08T07:11:45.691Z,30.55
2022-12-08T07:14:48.717Z,32.10
2022-12-08T07:17:56.386Z,34.34
2022-12-08T07:21:05.507Z,34.80
2022-12-08T07:24:09.048Z,35.09
2022-12-08T07:27:13.464Z,35.40
2022-12-08T07:30:16.561Z,35.32
2022-12-08T07:33:19.553Z,35.80
2022-12-08T07:36:23.133Z,35.91
2022-12-08T07:39:26.305Z,36.13
2022-12-08T07:42:30.748Z,36.21
2022-12-08T07:45:33.734Z,36.46
2022-12-08T07:48:36.780Z,36.35
2022-12-08T07:51:39.859Z,36.16
2022-12-08T07:54:42.958Z,36.10
2022-12-08T07:57:47.403Z,36.32
2022-12-08T08:00:50.524Z,36.57
2022-12-08T08:03:54.140Z,36.41
2022-12-08T08:06:57.178Z,36.55
2022-12-08T08:10:00.185Z,36.27
2022-12-08T08:13:04.769Z,36.71
2022-12-08T08:16:09.763Z,36.41
2022-12-08T08:19:12.880Z,36.39
2022-12-08T08:22:15.956Z,36.22
2022-12-08T08:25:20.477Z,36.51
2022-12-08T08:28:24.896Z,36.28
2022-12-08T08:31:28.073Z,36.46
2022-12-08T08:34:31.155Z,37.06
2022-12-08T08:37:34.243Z,36.73
2022-12-08T08:40:37.395Z,36.51
2022-12-08T08:43:41.905Z,36.90
2022-12-08T08:46:45.378Z,36.59
2022-12-08T08:49:48.492Z,36.72
2022-12-08T08:52:51.495Z,36.46
2022-12-08T08:55:54.528Z,36.46
2022-12-08T08:58:58.943Z,36.55
2022-12-08T09:02:02.052Z,36.40
2022-12-08T09:05:06.078Z,36.46
2022-12-08T09:08:09.369Z,36.67
2022-12-08T09:11:12.909Z,36.39
2022-12-08T09:14:17.435Z,36.39
2022-12-08T09:17:20.450Z,36.50
2022-12-08T09:20:23.813Z,36.33
2022-12-08T09:23:32.112Z,36.25
2022-12-08T09:26:38.191Z,36.02
2022-12-08T09:29:42.614Z,35.96
2022-12-08T09:32:45.631Z,36.25
2022-12-08T09:35:48.914Z,36.08
2022-12-08T09:38:53.806Z,36.37
2022-12-08T09:42:01.051Z,36.33
2022-12-08T09:45:13.346Z,36.08
2022-12-08T09:48:20.395Z,35.98
2022-12-08T09:51:25.980Z,36.50
2022-12-08T09:54:35.606Z,36.08
2022-12-08T09:57:38.632Z,36.09
2022-12-08T10:00:43.101Z,35.97
2022-12-08T10:03:46.539Z,36.46
2022-12-08T10:07:00.458Z,36.38
2022-12-08T10:10:08.841Z,36.07
2022-12-08T10:13:19.932Z,36.15
2022-12-08T10:16:32.590Z,36.16
2022-12-08T10:19:36.377Z,36.55
2022-12-08T10:22:44.535Z,36.46
2022-12-08T10:25:49.942Z,36.46
2022-12-08T10:28:53.101Z,36.02
2022-12-08T10:32:00.782Z,36.26
2022-12-08T10:35:07.522Z,36.17
2022-12-08T10:38:18.777Z,36.58
2022-12-08T10:41:21.892Z,36.51
2022-12-08T10:44:24.975Z,35.98
2022-12-08T10:47:30.870Z,36.44
2022-12-08T10:50:36.743Z,36.26
2022-12-08T10:53:47.456Z,36.13
2022-12-08T10:56:55.638Z,36.36
2022-12-08T10:59:58.824Z,36.24
2022-12-08T11:03:05.313Z,36.45
2022-12-08T11:06:16.071Z,36.27
2022-12-08T11:09:34.872Z,36.48
2022-12-08T11:12:37.958Z,36.17
2022-12-08T11:15:41.565Z,36.31
2022-12-08T11:18:48.258Z,36.33
2022-12-08T11:21:51.331Z,36.22
2022-12-08T11:25:02.893Z,36.38
2022-12-08T11:28:11.694Z,36.89
2022-12-08T11:31:24.112Z,36.86
2022-12-08T11:34:36.091Z,36.52
2022-12-08T11:37:41.300Z,36.92
2022-12-08T11:40:45.512Z,36.58
2022-12-08T11:43:56.865Z,36.41
2022-12-08T11:47:03.582Z,36.90
2022-12-08T11:50:21.736Z,36.75
2022-12-08T11:53:30.556Z,36.72
2022-12-08T11:56:36.123Z,36.35
2022-12-08T11:59:44.427Z,36.18
2022-12-08T12:02:55.257Z,36.38
2022-12-08T12:10:06.918Z,36.58
2022-12-08T12:13:24.092Z,36.58
2022-12-08T12:17:01.312Z,36.38
2022-12-08T12:20:14.232Z,36.75
2022-12-08T12:23:24.463Z,36.54
2022-12-08T12:26:32.218Z,37.00
2022-12-08T12:29:37.967Z,36.69
2022-12-08T12:32:46.899Z,36.58
2022-12-08T12:36:47.950Z,36.94
2022-12-08T12:39:59.148Z,36.75
2022-12-08T12:43:26.172Z,36.52
2022-12-08T12:46:56.996Z,36.72
2022-12-08T12:50:10.411Z,36.81
2022-12-08T12:53:49.064Z,36.89
2022-12-08T12:56:55.555Z,36.63
2022-12-08T13:00:10.349Z,36.57
2022-12-08T13:03:16.109Z,36.65
2022-12-08T13:06:25.692Z,36.64
2022-12-08T13:09:32.870Z,37.00
2022-12-08T13:12:37.367Z,37.17
2022-12-08T13:15:42.822Z,37.13
2022-12-08T13:18:50.156Z,37.05
2022-12-08T13:21:53.602Z,37.07
2022-12-08T13:25:36.983Z,36.67
2022-12-08T13:29:22.928Z,37.17
2022-12-08T13:36:29.857Z,37.14
2022-12-08T13:39:40.791Z,36.66
2022-12-08T13:42:49.013Z,37.13
2022-12-08T13:57:00.780Z,37.18
2022-12-08T13:59:45.722Z,36.68
2022-12-08T14:02:52.203Z,37.03
2022-12-08T14:06:12.968Z,37.00
2022-12-08T14:09:20.119Z,37.12
2022-12-08T14:12:26.106Z,37.40
2022-12-08T14:15:34.177Z,37.00
2022-12-08T14:18:41.472Z,36.86
2022-12-08T14:21:49.015Z,37.17
2022-12-08T14:24:54.040Z,37.21
2022-12-08T14:28:01.071Z,37.11
2022-12-08T14:31:05.665Z,36.85
2022-12-08T14:34:12.135Z,37.16
2022-12-08T14:37:15.349Z,37.23
2022-12-08T14:40:24.253Z,37.31
2022-12-08T14:43:29.241Z,37.23
2022-12-08T14:46:32.263Z,36.83
2022-12-08T14:49:39.125Z,37.03
2022-12-08T14:52:44.755Z,36.79
2022-12-08T14:55:49.714Z,37.17
2022-12-08T14:59:05.592Z,37.18
2022-12-08T15:02:23.051Z,37.24
2022-12-08T15:05:31.968Z,36.71
2022-12-08T15:08:45.869Z,36.83
2022-12-08T15:11:48.971Z,36.97
2022-12-08T15:15:00.546Z,37.11
2022-12-08T15:18:12.461Z,36.72
2022-12-08T15:21:16.970Z,37.29
2022-12-08T15:24:23.553Z,36.89
2022-12-08T15:27:27.167Z,37.01
2022-12-08T15:30:30.381Z,37.02
2022-12-08T15:33:33.380Z,36.98
2022-12-08T15:36:38.524Z,36.96
2022-12-08T15:39:41.572Z,37.00
2022-12-08T15:42:44.692Z,36.99
2022-12-08T15:45:57.835Z,37.13
2022-12-08T15:49:01.881Z,37.47
2022-12-08T15:52:12.025Z,36.94
2022-12-08T15:55:15.673Z,37.55
2022-12-08T16:01:46.390Z,37.47
2022-12-08T16:08:44.695Z,36.78
2022-12-08T16:12:06.378Z,36.67
2022-12-08T16:18:37.513Z,36.90
2022-12-08T16:22:17.746Z,36.95
2022-12-08T16:25:19.216Z,36.69
2022-12-08T16:28:52.913Z,36.77
2022-12-08T16:31:46.352Z,36.64
2022-12-08T16:34:50.213Z,37.00
2022-12-08T16:37:53.204Z,36.59
2022-12-08T16:41:15.042Z,37.18
2022-12-08T16:44:18.152Z,37.51
2022-12-08T16:47:21.138Z,38.07
2022-12-08T16:50:26.633Z,38.70
2022-12-08T16:53:29.629Z,38.15
2022-12-08T16:56:34.063Z,38.51
2022-12-08T16:59:39.152Z,38.04
2022-12-08T17:02:42.185Z,38.35
2022-12-08T17:05:45.306Z,37.93
2022-12-08T17:08:48.367Z,37.74
2022-12-08T17:11:52.835Z,38.47
2022-12-08T17:14:55.826Z,38.21
2022-12-08T17:17:58.859Z,37.94
2022-12-08T17:21:01.920Z,38.22
2022-12-08T17:24:05.226Z,37.90
2022-12-08T17:27:09.733Z,38.34
2022-12-08T17:30:15.847Z,38.38
2022-12-08T17:33:22.245Z,38.23
2022-12-08T17:36:29.960Z,38.49
2022-12-08T17:39:33.035Z,38.25
2022-12-08T17:42:38.772Z,38.20
2022-12-08T17:45:43.207Z,38.46
2022-12-08T17:48:46.315Z,38.07
2022-12-08T17:51:50.059Z,38.44
2022-12-08T17:54:53.058Z,38.51
2022-12-08T17:57:57.537Z,39.08
2022-12-08T18:01:00.560Z,39.58
2022-12-08T18:04:06.797Z,39.62
2022-12-08T18:07:09.922Z,39.53
2022-12-08T18:10:13.317Z,39.67
2022-12-08T18:13:17.725Z,39.42
2022-12-08T18:16:22.771Z,39.74
2022-12-08T18:19:26.332Z,39.88
2022-12-08T18:22:29.323Z,39.97
2022-12-08T18:25:32.483Z,39.83
2022-12-08T18:28:37.549Z,39.80
2022-12-08T18:31:40.615Z,39.92
2022-12-08T18:34:43.614Z,39.69
2022-12-08T18:37:47.099Z,40.16
2022-12-08T18:40:50.190Z,39.83
2022-12-08T18:43:56.090Z,39.79
2022-12-08T18:46:59.251Z,39.76
2022-12-08T18:50:02.321Z,40.05
2022-12-08T18:53:05.471Z,40.19
2022-12-08T18:56:09.545Z,40.19
2022-12-08T18:59:14.553Z,40.34
2022-12-08T19:02:18.506Z,39.86
2022-12-08T19:05:21.766Z,39.95
2022-12-08T19:08:31.040Z,40.50
2022-12-08T19:11:34.555Z,40.48
2022-12-08T19:14:39.029Z,40.56
2022-12-08T19:17:42.194Z,40.49
2022-12-08T19:20:45.322Z,40.02
2022-12-08T19:23:49.335Z,40.61
2022-12-08T19:26:52.983Z,40.74
2022-12-08T19:29:57.815Z,40.77
2022-12-08T19:33:01.031Z,40.57
2022-12-08T19:36:06.961Z,40.81
2022-12-08T19:39:32.036Z,40.71
2022-12-08T19:42:52.499Z,40.47
2022-12-08T19:45:57.069Z,41.04
2022-12-08T19:49:00.273Z,41.09
2022-12-08T19:52:03.539Z,40.93
2022-12-08T19:55:07.107Z,41.08
2022-12-08T19:58:11.287Z,40.87
2022-12-08T20:01:17.482Z,41.01
2022-12-08T20:04:20.912Z,41.35
2022-12-08T20:07:24.081Z,41.09
2022-12-08T20:10:29.927Z,41.35
2022-12-08T20:13:42.086Z,40.70
2022-12-08T20:16:46.599Z,41.26
2022-12-08T20:19:49.873Z,41.00
2022-12-08T20:22:52.906Z,40.78
2022-12-08T20:25:55.992Z,40.88
2022-12-08T20:28:59.050Z,41.33
2022-12-08T20:32:03.677Z,40.74
2022-12-08T20:35:07.518Z,40.90
2022-12-08T20:38:10.932Z,40.65
2022-12-08T20:41:16.125Z,40.88
2022-12-08T20:44:19.272Z,41.09
2022-12-08T20:47:23.783Z,40.89
2022-12-08T20:50:27.628Z,40.59
2022-12-08T20:53:30.961Z,41.04
2022-12-08T20:56:34.365Z,40.98
2022-12-08T20:59:37.565Z,40.60
2022-12-08T21:02:48.609Z,40.72
2022-12-08T21:05:54.193Z,41.00
2022-12-08T21:08:57.591Z,41.10
2022-12-08T21:12:00.811Z,40.86
2022-12-08T21:15:03.936Z,40.93
2022-12-08T21:18:08.577Z,40.62
2022-12-08T21:21:15.456Z,40.95
2022-12-08T21:24:19.382Z,40.73
2022-12-08T21:27:22.522Z,40.59
2022-12-08T21:30:25.725Z,40.52
2022-12-08T21:33:30.351Z,40.13
2022-12-08T21:36:34.030Z,40.10
2022-12-08T21:39:37.375Z,40.37
2022-12-08T21:42:46.245Z,40.00
2022-12-08T21:45:49.616Z,40.38
2022-12-08T21:48:54.286Z,40.26
2022-12-08T21:51:57.613Z,40.15
2022-12-08T21:55:01.021Z,39.71
2022-12-08T21:58:04.126Z,39.88
2022-12-08T22:01:08.096Z,39.87
2022-12-08T22:04:13.373Z,39.68
2022-12-08T22:07:17.051Z,39.89
2022-12-08T22:10:21.126Z,39.91
2022-12-08T22:13:24.265Z,39.30
2022-12-08T22:16:27.321Z,39.70
2022-12-08T22:19:33.041Z,39.76
2022-12-08T22:22:36.561Z,39.72
2022-12-08T22:25:39.811Z,39.23
2022-12-08T22:28:44.437Z,39.06
2022-12-08T22:31:47.765Z,39.03
2022-12-08T22:34:52.303Z,39.73
2022-12-08T22:37:55.313Z,39.36
2022-12-08T22:40:58.325Z,39.24
2022-12-08T22:44:01.333Z,38.97
2022-12-08T22:47:04.394Z,39.18
2022-12-08T22:50:10.053Z,39.40
2022-12-08T22:53:13.949Z,39.02
2022-12-08T22:56:17.737Z,39.32
2022-12-08T22:59:21.026Z,38.71
2022-12-08T23:02:24.111Z,39.08
2022-12-08T23:05:28.631Z,38.79
2022-12-08T23:08:31.802Z,39.29
2022-12-08T23:11:35.991Z,39.01
2022-12-08T23:14:39.096Z,39.12
2022-12-08T23:17:42.455Z,39.10
2022-12-08T23:20:47.606Z,39.08
2022-12-08T23:23:50.949Z,38.75
2022-12-08T23:26:54.053Z,38.58
2022-12-08T23:29:57.274Z,38.89
2022-12-08T23:33:00.546Z,38.61
2022-12-08T23:36:05.438Z,38.82
2022-12-08T23:39:08.636Z,38.48
2022-12-08T23:42:11.990Z,38.57
2022-12-08T23:45:15.129Z,38.80
2022-12-08T23:48:18.526Z,38.87
2022-12-08T23:51:23.075Z,38.55
2022-12-08T23:54:26.224Z,38.47
2022-12-08T23:57:29.284Z,38.52
